This is the latest recevied weather packets stored in our database for station/object KD8ZLZ-13. If no packets are shown the sender has not sent any weather packets the latest 10 day(s).
| Time | Temp. | Humidity | Pressure | Rain* | Wind** | Luminosity | Snow |
|---|---|---|---|---|---|---|---|
| 1778023841 | 12.22° C | 51% | 1008.5 hPa | 0 mm | - | 28 W/m² | - |
| 1778023241 | 12.22° C | 52% | 1008.5 hPa | 0 mm | - | 40 W/m² | - |
| 1778022641 | 12.22° C | 53% | 1008.8 hPa | 0 mm | - | 50 W/m² | - |
| 1778022041 | 12.78° C | 54% | 1008.5 hPa | 0 mm | - | 54 W/m² | - |
| 1778021441 | 12.78° C | 56% | 1008.5 hPa | 0 mm | - | 48 W/m² | - |
| 1778020841 | 12.78° C | 59% | 1008.5 hPa | 0 mm | - | 63 W/m² | - |
| 1778020241 | 12.78° C | 60% | 1008.5 hPa | 0 mm | - | 83 W/m² | - |
| 1778019641 | 12.78° C | 61% | 1008.8 hPa | 0 mm | - | 103 W/m² | - |
| 1778019041 | 12.78° C | 61% | 1008.5 hPa | 0 mm | - | 123 W/m² | - |
| 1778018441 | 12.78° C | 61% | 1008.5 hPa | 0 mm | - | 135 W/m² | - |
| 1778017841 | 12.78° C | 63% | 1008.5 hPa | 0 mm | - | 156 W/m² | - |
| 1778017241 | 12.78° C | 64% | 1008.5 hPa | 0 mm | - | 89 W/m² | - |
| 1778016641 | 12.22° C | 64% | 1008.5 hPa | 0 mm | - | 74 W/m² | - |
| 1778016041 | 12.22° C | 64% | 1008.8 hPa | 0 mm | - | 77 W/m² | - |
| 1778015441 | 12.22° C | 62% | 1008.8 hPa | 0 mm | - | 82 W/m² | - |
| 1778014841 | 12.22° C | 63% | 1008.8 hPa | 0 mm | - | 90 W/m² | - |
| 1778014241 | 12.22° C | 62% | 1008.8 hPa | 0 mm | - | 81 W/m² | - |
| 1778013641 | 12.22° C | 63% | 1008.8 hPa | 0 mm | - | 95 W/m² | - |
| 1778013041 | 12.22° C | 62% | 1009.2 hPa | 0 mm | - | 146 W/m² | - |
| 1778012441 | 12.78° C | 62% | 1009.2 hPa | 0 mm | - | 216 W/m² | - |
| 1778011841 | 12.78° C | 61% | 1009.2 hPa | 0 mm | - | 233 W/m² | - |
| 1778011241 | 12.78° C | 60% | 1009.2 hPa | 0 mm | - | 252 W/m² | - |
| 1778010641 | 12.22° C | 60% | 1009.2 hPa | 0 mm | - | 197 W/m² | - |
| 1778010041 | 12.78° C | 60% | 1009.2 hPa | 0 mm | - | 201 W/m² | - |
| 1777994583 | 15° C | 50% | 1007.1 hPa | 0 mm | - | 0 W/m² | - |
* Rain latest hour (hover to see other rain measurements)
** Current wind speed in m/s (hover to see current wind gust speed)